»·PEaware :: N8DL KPSP-KPHX

N8DL :: KPSP-KPHX

FLIGHT INFORMATION

Flight Status: Arrived
Operator: Privately registered:
United States
More flights under this callsign
Pilot: Dean L. (8400)
Aircraft: CESSNA 525 CITATION JET CJ1
(C525)
More flights by this aircraft type
Origin: KPSP Palm Springs Intl
United States
Destination: KPHX Phoenix Sky Harbor Intl
United States
More flights between these airports :: More routes between these airports
Route: +TRM6 TRM J169 BLH HYDRR1
File this flight plan on PilotEdge
Remarks: PBN / D1 DOF / 180724 REG / N081SB EET / KZAB0022 RMK / TCAS SIMBRIEF
Altitude:
(Current/Filed)
31,000ft
Speed:
(Current/Filed)
376kts
Departed: 24-Jul-18 01:50 PM
Arrived: 24-Jul-18 02:45 PM
Distance/Time
Traveled:
225nm/0:55
Distance/Time
To Go:
Arrived

Flight Plot

Page will automatically refresh every two minutes.


Map Options




Map Legend


Flown Route
Filed Route
Departure Airport
Arrival Airport
Navaid (VOR, NDB)
Fix

Horizontal Profiles

Position Reports

Time Latitude Longitude Heading Altitude Ground
Speed
24-Jul-18 13:33 33.822218 -116.506438 340 481ft 0kts
24-Jul-18 13:34 33.822220 -116.506439 340 481ft 0kts
24-Jul-18 13:35 33.822222 -116.506439 340 481ft 0kts
24-Jul-18 13:36 33.822223 -116.506440 340 481ft 0kts
24-Jul-18 13:37 33.822225 -116.506441 340 481ft 0kts
24-Jul-18 13:38 33.822227 -116.506442 340 481ft 0kts
24-Jul-18 13:39 33.822229 -116.506442 340 481ft 0kts
24-Jul-18 13:40 33.822230 -116.506443 340 481ft 0kts
24-Jul-18 13:41 33.822232 -116.506444 340 481ft 0kts
24-Jul-18 13:42 33.822234 -116.506444 340 481ft 0kts
24-Jul-18 13:43 33.822235 -116.506445 340 481ft 0kts
24-Jul-18 13:44 33.822237 -116.506446 340 481ft 0kts
24-Jul-18 13:45 33.822629 -116.505153 74 481ft 13kts
24-Jul-18 13:46 33.825990 -116.506053 323 481ft 22kts
24-Jul-18 13:47 33.831593 -116.511037 323 481ft 27kts
24-Jul-18 13:48 33.837941 -116.516651 323 481ft 29kts
24-Jul-18 13:49 33.839535 -116.517899 353 481ft 0kts
24-Jul-18 13:50 33.839537 -116.517900 353 481ft 0kts
24-Jul-18 13:51 33.836597 -116.513779 143 481ft 76kts
24-Jul-18 13:52 33.805532 -116.475217 99 980ft 202kts
24-Jul-18 13:53 33.807761 -116.408306 85 2584ft 213kts
24-Jul-18 13:54 33.780961 -116.344513 129 4594ft 224kts
24-Jul-18 13:55 33.744012 -116.283736 104 6441ft 229kts
24-Jul-18 13:56 33.700154 -116.236770 164 8466ft 242kts
24-Jul-18 13:57 33.649117 -116.184103 146 11667ft 252kts
24-Jul-18 13:58 33.592703 -116.133574 150 14554ft 263kts
24-Jul-18 13:59 33.579557 -116.051500 79 17062ft 288kts
24-Jul-18 14:00 33.596520 -115.955763 77 20244ft 301kts
24-Jul-18 14:01 33.617927 -115.855771 80 22976ft 329kts
24-Jul-18 14:02 33.607958 -115.732828 99 23006ft 405kts
24-Jul-18 14:03 33.601630 -115.602017 88 25363ft 390kts
24-Jul-18 14:04 33.601115 -115.470866 93 26730ft 397kts
24-Jul-18 14:05 33.591754 -115.338132 95 27809ft 403kts
24-Jul-18 14:06 33.584420 -115.205655 92 29301ft 399kts
24-Jul-18 14:07 33.581419 -115.093551 91 30236ft 405kts
24-Jul-18 14:08 33.569509 -114.958437 103 30974ft 416kts
24-Jul-18 14:09 33.590545 -114.801397 65 31004ft 438kts
24-Jul-18 14:10 33.581626 -114.685233 127 31000ft 446kts
24-Jul-18 14:11 33.524828 -114.542474 93 30574ft 377kts
24-Jul-18 14:12 33.522664 -114.420834 90 29077ft 356kts
24-Jul-18 14:13 33.522561 -114.302492 90 27348ft 355kts
24-Jul-18 14:14 33.522583 -114.183733 89 25550ft 356kts
24-Jul-18 14:15 33.522288 -114.064905 91 23755ft 357kts
24-Jul-18 14:16 33.516821 -113.965953 96 22258ft 358kts
24-Jul-18 14:17 33.492586 -113.850688 109 20465ft 358kts
24-Jul-18 14:18 33.457528 -113.738875 110 18670ft 359kts
24-Jul-18 14:19 33.425618 -113.625538 99 17163ft 353kts
24-Jul-18 14:20 33.410236 -113.512914 100 16998ft 336kts
24-Jul-18 14:21 33.391219 -113.404668 102 16999ft 332kts
24-Jul-18 14:22 33.371116 -113.296721 102 16999ft 331kts
24-Jul-18 14:23 33.350822 -113.189205 102 17000ft 331kts
24-Jul-18 14:24 33.330614 -113.082831 102 16996ft 315kts
24-Jul-18 14:25 33.310729 -112.978690 102 17001ft 330kts
24-Jul-18 14:26 33.290396 -112.872719 102 16997ft 318kts
24-Jul-18 14:27 33.285520 -112.767712 83 16774ft 324kts
24-Jul-18 14:28 33.295018 -112.667380 83 15764ft 292kts
24-Jul-18 14:29 33.304110 -112.569832 83 14595ft 309kts
24-Jul-18 14:30 33.313436 -112.468872 83 13101ft 302kts
24-Jul-18 14:31 33.322552 -112.369293 83 11601ft 300kts
24-Jul-18 14:32 33.331637 -112.269845 83 10101ft 300kts
24-Jul-18 14:33 33.340442 -112.172554 83 9095ft 260kts
24-Jul-18 14:34 33.347445 -112.091677 87 8870ft 244kts
24-Jul-18 14:35 33.346673 -112.016453 90 7883ft 218kts
24-Jul-18 14:36 33.345612 -111.943773 91 6721ft 221kts
24-Jul-18 14:37 33.344245 -111.869867 91 5420ft 222kts
24-Jul-18 14:38 33.343056 -111.796695 86 4163ft 208kts
24-Jul-18 14:39 33.380186 -111.774230 0 3998ft 148kts
24-Jul-18 14:40 33.415547 -111.790933 293 3941ft 158kts
24-Jul-18 14:41 33.426672 -111.847007 279 3126ft 166kts
24-Jul-18 14:42 33.430202 -111.898777 270 3005ft 161kts
24-Jul-18 14:43 33.429404 -111.946490 269 2024ft 126kts
24-Jul-18 14:44 33.428713 -111.989846 272 1398ft 122kts
24-Jul-18 14:45 33.428999 -112.018685 270 1139ft 43kts
24-Jul-18 14:46 33.428071 -112.025903 155 1139ft 9kts

Navigation Log

Ident Type
Flight plan parsing failed, navigation log unavailable